Archival Weather

Doha Intl Airport

Doha Intl Airport, Qatar (OTBD)

Report from: Thursday, September 21, 2023 6:00 PM +03
Current time: Saturday, February 24, 2024 6:50 PM +03

Current weather – Weather history – Daily summaries
Weather forecast

Temperature35.0°C (95.0°F)
Heat index46.8°C (116.2°F)
Dew point27.0°C (80.6°F)
Winds 11 kts (5.7 m/s, 12.7 mph) North (360°)
Clouds Sky clear
Altimeter29.65 in.Hg (1004 mB)
Relative humidity63 %
Density altitude3,053 ft. (930 m)
Remarks Fully automated report
Ceiling and visibility OK
No significant changes expected in the next two hours
Flight conditions Visual Meteorological Conditions
Raw dataOTBD 211500Z AUTO 36011KT CAVOK 35/27 Q1004 NOSIG
An error has occurred. This application may no longer respond until reloaded. Reload 🗙